sensor_id;sensor_type;location;lat;lon;timestamp;pressure;altitude;pressure_sealevel;temperature;humidity
21276;BME280;36472;52.170;20.884;2024-02-23T00:01:33;98451.84;;;9.38;73.29
21276;BME280;36472;52.170;20.884;2024-02-23T00:04:02;98451.13;;;9.55;72.15
21276;BME280;36472;52.170;20.884;2024-02-23T00:06:31;98445.59;;;9.59;71.90
21276;BME280;36472;52.170;20.884;2024-02-23T00:09:00;98447.09;;;9.61;72.24
21276;BME280;36472;52.170;20.884;2024-02-23T00:11:29;98442.44;;;9.45;72.50
21276;BME280;36472;52.170;20.884;2024-02-23T00:14:00;98440.38;;;9.49;73.01
21276;BME280;36472;52.170;20.884;2024-02-23T00:16:38;98447.81;;;9.34;73.11
21276;BME280;36472;52.170;20.884;2024-02-23T00:19:08;98450.44;;;9.34;73.86
21276;BME280;36472;52.170;20.884;2024-02-23T00:21:38;98448.50;;;9.46;73.33
21276;BME280;36472;52.170;20.884;2024-02-23T00:24:07;98451.03;;;9.28;73.95
21276;BME280;36472;52.170;20.884;2024-02-23T00:26:37;98445.50;;;9.31;73.69
21276;BME280;36472;52.170;20.884;2024-02-23T00:29:06;98440.69;;;9.36;73.96
21276;BME280;36472;52.170;20.884;2024-02-23T00:31:38;98435.03;;;9.21;74.21
21276;BME280;36472;52.170;20.884;2024-02-23T00:34:08;98435.72;;;9.23;74.18
21276;BME280;36472;52.170;20.884;2024-02-23T00:36:39;98440.53;;;9.28;74.42
21276;BME280;36472;52.170;20.884;2024-02-23T00:39:08;98426.44;;;9.48;73.90
21276;BME280;36472;52.170;20.884;2024-02-23T00:41:37;98428.91;;;9.50;73.45
21276;BME280;36472;52.170;20.884;2024-02-23T00:44:06;98419.25;;;9.50;73.14
21276;BME280;36472;52.170;20.884;2024-02-23T00:46:37;98417.34;;;9.33;73.95
21276;BME280;36472;52.170;20.884;2024-02-23T00:49:06;98416.50;;;9.42;73.48
21276;BME280;36472;52.170;20.884;2024-02-23T00:51:35;98416.91;;;9.38;74.14
21276;BME280;36472;52.170;20.884;2024-02-23T00:54:05;98424.38;;;9.32;74.25
21276;BME280;36472;52.170;20.884;2024-02-23T00:56:35;98417.91;;;9.27;74.60
21276;BME280;36472;52.170;20.884;2024-02-23T00:59:17;98403.81;;;9.38;74.84
21276;BME280;36472;52.170;20.884;2024-02-23T01:01:48;98409.31;;;9.54;73.73
21276;BME280;36472;52.170;20.884;2024-02-23T01:04:17;98399.41;;;9.38;74.46
21276;BME280;36472;52.170;20.884;2024-02-23T01:06:46;98394.72;;;9.42;74.13
21276;BME280;36472;52.170;20.884;2024-02-23T01:09:15;98391.03;;;9.25;74.67
21276;BME280;36472;52.170;20.884;2024-02-23T01:11:48;98399.16;;;9.31;75.21
21276;BME280;36472;52.170;20.884;2024-02-23T01:14:17;98394.28;;;9.46;74.42
21276;BME280;36472;52.170;20.884;2024-02-23T01:16:48;98390.69;;;9.47;74.80
21276;BME280;36472;52.170;20.884;2024-02-23T01:19:17;98383.69;;;9.28;75.33
21276;BME280;36472;52.170;20.884;2024-02-23T01:21:46;98381.06;;;9.28;75.18
21276;BME280;36472;52.170;20.884;2024-02-23T01:24:16;98376.22;;;9.43;74.61
21276;BME280;36472;52.170;20.884;2024-02-23T01:26:45;98377.91;;;9.34;74.85
21276;BME280;36472;52.170;20.884;2024-02-23T01:29:14;98373.47;;;9.45;74.59
21276;BME280;36472;52.170;20.884;2024-02-23T01:31:44;98386.31;;;9.38;74.33
21276;BME280;36472;52.170;20.884;2024-02-23T01:34:15;98375.28;;;9.34;75.29
21276;BME280;36472;52.170;20.884;2024-02-23T01:36:44;98373.16;;;9.48;74.85
21276;BME280;36472;52.170;20.884;2024-02-23T01:39:13;98369.06;;;9.35;74.88
21276;BME280;36472;52.170;20.884;2024-02-23T01:41:43;98381.28;;;9.54;74.46
21276;BME280;36472;52.170;20.884;2024-02-23T01:44:12;98381.88;;;9.48;74.14
21276;BME280;36472;52.170;20.884;2024-02-23T01:46:43;98385.84;;;9.52;74.68
21276;BME280;36472;52.170;20.884;2024-02-23T01:49:14;98379.44;;;9.65;74.05
21276;BME280;36472;52.170;20.884;2024-02-23T01:51:43;98388.22;;;9.46;74.57
21276;BME280;36472;52.170;20.884;2024-02-23T01:54:13;98385.56;;;9.55;74.60
21276;BME280;36472;52.170;20.884;2024-02-23T01:56:42;98381.28;;;9.54;74.68
21276;BME280;36472;52.170;20.884;2024-02-23T01:59:13;98368.22;;;9.45;75.17
21276;BME280;36472;52.170;20.884;2024-02-23T02:01:43;98365.72;;;9.43;74.86
21276;BME280;36472;52.170;20.884;2024-02-23T02:04:14;98363.91;;;9.53;74.98
21276;BME280;36472;52.170;20.884;2024-02-23T02:06:45;98375.94;;;9.46;75.14
21276;BME280;36472;52.170;20.884;2024-02-23T02:09:14;98360.41;;;9.63;74.53
21276;BME280;36472;52.170;20.884;2024-02-23T02:11:47;98363.28;;;9.69;74.27
21276;BME280;36472;52.170;20.884;2024-02-23T02:14:16;98363.03;;;9.63;74.76
21276;BME280;36472;52.170;20.884;2024-02-23T02:16:46;98363.53;;;9.76;73.86
21276;BME280;36472;52.170;20.884;2024-02-23T02:19:16;98357.22;;;9.31;75.24
21276;BME280;36472;52.170;20.884;2024-02-23T02:21:46;98355.31;;;9.61;74.53
21276;BME280;36472;52.170;20.884;2024-02-23T02:24:14;98362.66;;;9.48;75.27
21276;BME280;36472;52.170;20.884;2024-02-23T02:26:44;98356.16;;;9.62;74.73
21276;BME280;36472;52.170;20.884;2024-02-23T02:29:14;98371.69;;;9.73;74.34
21276;BME280;36472;52.170;20.884;2024-02-23T02:31:43;98354.47;;;9.70;74.45
21276;BME280;36472;52.170;20.884;2024-02-23T02:34:13;98359.19;;;9.57;74.24
21276;BME280;36472;52.170;20.884;2024-02-23T02:36:44;98358.38;;;9.57;75.22
21276;BME280;36472;52.170;20.884;2024-02-23T02:39:12;98346.88;;;9.67;74.39
21276;BME280;36472;52.170;20.884;2024-02-23T02:41:41;98352.44;;;9.54;75.32
21276;BME280;36472;52.170;20.884;2024-02-23T02:44:10;98352.22;;;9.76;74.39
21276;BME280;36472;52.170;20.884;2024-02-23T02:46:41;98349.66;;;9.56;75.34
21276;BME280;36472;52.170;20.884;2024-02-23T02:49:09;98355.41;;;9.69;75.33
21276;BME280;36472;52.170;20.884;2024-02-23T02:51:39;98345.56;;;9.53;74.97
21276;BME280;36472;52.170;20.884;2024-02-23T02:54:09;98348.84;;;9.55;75.11
21276;BME280;36472;52.170;20.884;2024-02-23T02:56:42;98359.66;;;9.43;75.76
21276;BME280;36472;52.170;20.884;2024-02-23T02:59:12;98354.16;;;9.73;75.03
21276;BME280;36472;52.170;20.884;2024-02-23T03:01:41;98350.19;;;9.69;75.44
21276;BME280;36472;52.170;20.884;2024-02-23T03:04:10;98356.97;;;9.62;77.15
21276;BME280;36472;52.170;20.884;2024-02-23T03:06:39;98360.66;;;9.69;77.41
21276;BME280;36472;52.170;20.884;2024-02-23T03:09:10;98362.63;;;9.67;78.52
21276;BME280;36472;52.170;20.884;2024-02-23T03:11:39;98360.31;;;9.54;81.17
21276;BME280;36472;52.170;20.884;2024-02-23T03:14:08;98372.81;;;9.13;84.21
21276;BME280;36472;52.170;20.884;2024-02-23T03:16:38;98362.47;;;9.12;84.84
21276;BME280;36472;52.170;20.884;2024-02-23T03:19:06;98368.28;;;8.86;86.41
21276;BME280;36472;52.170;20.884;2024-02-23T03:21:36;98365.69;;;8.86;88.48
21276;BME280;36472;52.170;20.884;2024-02-23T03:24:07;98379.22;;;8.82;89.80
21276;BME280;36472;52.170;20.884;2024-02-23T03:26:37;98376.59;;;8.72;91.05
21276;BME280;36472;52.170;20.884;2024-02-23T03:29:06;98378.66;;;8.68;92.13
21276;BME280;36472;52.170;20.884;2024-02-23T03:31:36;98370.78;;;8.58;92.97
21276;BME280;36472;52.170;20.884;2024-02-23T03:34:05;98373.13;;;8.61;93.04
21276;BME280;36472;52.170;20.884;2024-02-23T03:36:36;98375.69;;;8.42;94.68
21276;BME280;36472;52.170;20.884;2024-02-23T03:39:05;98384.00;;;8.47;95.38
21276;BME280;36472;52.170;20.884;2024-02-23T03:41:35;98376.56;;;8.52;95.65
21276;BME280;36472;52.170;20.884;2024-02-23T03:44:05;98393.69;;;8.66;95.83
21276;BME280;36472;52.170;20.884;2024-02-23T03:46:35;98395.72;;;8.53;96.78
21276;BME280;36472;52.170;20.884;2024-02-23T03:49:04;98393.38;;;8.50;96.59
21276;BME280;36472;52.170;20.884;2024-02-23T03:51:33;98389.94;;;8.49;96.93
21276;BME280;36472;52.170;20.884;2024-02-23T03:54:04;98403.31;;;8.56;97.13
21276;BME280;36472;52.170;20.884;2024-02-23T03:56:38;98404.56;;;8.61;97.50
21276;BME280;36472;52.170;20.884;2024-02-23T03:59:10;98393.50;;;8.48;98.52
21276;BME280;36472;52.170;20.884;2024-02-23T04:01:39;98402.97;;;8.39;98.85
21276;BME280;36472;52.170;20.884;2024-02-23T04:04:08;98401.78;;;8.53;98.96
21276;BME280;36472;52.170;20.884;2024-02-23T04:06:37;98408.94;;;8.51;100.00
21276;BME280;36472;52.170;20.884;2024-02-23T04:09:07;98405.03;;;8.36;100.00
21276;BME280;36472;52.170;20.884;2024-02-23T04:11:36;98407.38;;;8.39;100.00
21276;BME280;36472;52.170;20.884;2024-02-23T04:14:05;98413.50;;;8.49;100.00
21276;BME280;36472;52.170;20.884;2024-02-23T04:16:36;98415.09;;;8.40;100.00
21276;BME280;36472;52.170;20.884;2024-02-23T04:19:05;98412.22;;;8.43;100.00
21276;BME280;36472;52.170;20.884;2024-02-23T04:21:36;98416.13;;;8.49;100.00
21276;BME280;36472;52.170;20.884;2024-02-23T04:24:06;98411.22;;;8.35;100.00
21276;BME280;36472;52.170;20.884;2024-02-23T04:26:36;98414.66;;;8.26;100.00
21276;BME280;36472;52.170;20.884;2024-02-23T04:29:05;98422.81;;;8.42;100.00
21276;BME280;36472;52.170;20.884;2024-02-23T04:31:38;98413.97;;;8.23;100.00
21276;BME280;36472;52.170;20.884;2024-02-23T04:34:07;98415.59;;;8.24;100.00
21276;BME280;36472;52.170;20.884;2024-02-23T04:36:36;98424.03;;;8.38;100.00
21276;BME280;36472;52.170;20.884;2024-02-23T04:39:05;98420.06;;;8.34;100.00
21276;BME280;36472;52.170;20.884;2024-02-23T04:41:34;98425.16;;;8.35;100.00
21276;BME280;36472;52.170;20.884;2024-02-23T04:44:03;98424.69;;;8.20;100.00
21276;BME280;36472;52.170;20.884;2024-02-23T04:46:32;98425.31;;;8.43;100.00
21276;BME280;36472;52.170;20.884;2024-02-23T04:49:03;98426.31;;;8.12;100.00
21276;BME280;36472;52.170;20.884;2024-02-23T04:51:32;98438.38;;;8.34;100.00
21276;BME280;36472;52.170;20.884;2024-02-23T04:54:01;98438.28;;;8.45;100.00
21276;BME280;36472;52.170;20.884;2024-02-23T04:56:30;98438.28;;;8.45;100.00
21276;BME280;36472;52.170;20.884;2024-02-23T04:59:01;98437.22;;;8.17;100.00
21276;BME280;36472;52.170;20.884;2024-02-23T05:01:35;98437.78;;;8.20;100.00
21276;BME280;36472;52.170;20.884;2024-02-23T05:04:06;98445.13;;;8.36;100.00
21276;BME280;36472;52.170;20.884;2024-02-23T05:06:36;98449.59;;;8.46;100.00
21276;BME280;36472;52.170;20.884;2024-02-23T05:09:05;98452.78;;;8.49;100.00
21276;BME280;36472;52.170;20.884;2024-02-23T05:11:37;98448.16;;;8.41;100.00
21276;BME280;36472;52.170;20.884;2024-02-23T05:14:06;98447.16;;;8.33;100.00
21276;BME280;36472;52.170;20.884;2024-02-23T05:16:36;98450.31;;;8.27;100.00
21276;BME280;36472;52.170;20.884;2024-02-23T05:19:06;98459.34;;;8.13;100.00
21276;BME280;36472;52.170;20.884;2024-02-23T05:21:35;98462.16;;;8.21;100.00
21276;BME280;36472;52.170;20.884;2024-02-23T05:24:04;98463.03;;;8.41;100.00
21276;BME280;36472;52.170;20.884;2024-02-23T05:26:34;98468.28;;;8.41;100.00
21276;BME280;36472;52.170;20.884;2024-02-23T05:29:03;98466.69;;;8.19;100.00
21276;BME280;36472;52.170;20.884;2024-02-23T05:31:45;98474.59;;;8.29;100.00
21276;BME280;36472;52.170;20.884;2024-02-23T05:34:16;98478.09;;;8.18;100.00
21276;BME280;36472;52.170;20.884;2024-02-23T05:36:47;98475.91;;;8.23;100.00
21276;BME280;36472;52.170;20.884;2024-02-23T05:39:17;98473.84;;;8.27;100.00
21276;BME280;36472;52.170;20.884;2024-02-23T05:41:46;98482.94;;;8.22;100.00
21276;BME280;36472;52.170;20.884;2024-02-23T05:44:15;98492.69;;;8.11;100.00
21276;BME280;36472;52.170;20.884;2024-02-23T05:46:44;98489.66;;;8.15;100.00
21276;BME280;36472;52.170;20.884;2024-02-23T05:49:13;98494.84;;;8.36;100.00
21276;BME280;36472;52.170;20.884;2024-02-23T05:51:44;98499.88;;;8.18;100.00
21276;BME280;36472;52.170;20.884;2024-02-23T05:54:12;98508.31;;;8.32;100.00
21276;BME280;36472;52.170;20.884;2024-02-23T05:56:43;98502.09;;;8.23;100.00
21276;BME280;36472;52.170;20.884;2024-02-23T05:59:12;98508.56;;;8.19;100.00
21276;BME280;36472;52.170;20.884;2024-02-23T06:01:42;98503.75;;;8.24;100.00
21276;BME280;36472;52.170;20.884;2024-02-23T06:04:11;98519.06;;;8.29;100.00
21276;BME280;36472;52.170;20.884;2024-02-23T06:06:43;98516.97;;;8.22;100.00
21276;BME280;36472;52.170;20.884;2024-02-23T06:09:12;98526.19;;;8.17;100.00
21276;BME280;36472;52.170;20.884;2024-02-23T06:11:41;98527.31;;;8.24;100.00
21276;BME280;36472;52.170;20.884;2024-02-23T06:14:10;98524.38;;;8.17;100.00
21276;BME280;36472;52.170;20.884;2024-02-23T06:16:40;98536.84;;;8.35;100.00
21276;BME280;36472;52.170;20.884;2024-02-23T06:19:09;98531.88;;;8.32;100.00
21276;BME280;36472;52.170;20.884;2024-02-23T06:21:38;98536.97;;;8.33;100.00
21276;BME280;36472;52.170;20.884;2024-02-23T06:24:08;98543.13;;;8.22;100.00
21276;BME280;36472;52.170;20.884;2024-02-23T06:26:38;98539.06;;;8.39;100.00
21276;BME280;36472;52.170;20.884;2024-02-23T06:29:06;98549.81;;;8.36;100.00
21276;BME280;36472;52.170;20.884;2024-02-23T06:31:40;98544.38;;;8.28;100.00
21276;BME280;36472;52.170;20.884;2024-02-23T06:34:09;98545.94;;;8.31;100.00
21276;BME280;36472;52.170;20.884;2024-02-23T06:36:38;98542.19;;;8.23;100.00
21276;BME280;36472;52.170;20.884;2024-02-23T06:39:08;98554.66;;;8.41;100.00
21276;BME280;36472;52.170;20.884;2024-02-23T06:41:38;98552.66;;;8.23;100.00
21276;BME280;36472;52.170;20.884;2024-02-23T06:44:07;98549.59;;;8.18;100.00
21276;BME280;36472;52.170;20.884;2024-02-23T06:46:36;98557.53;;;8.38;100.00
21276;BME280;36472;52.170;20.884;2024-02-23T06:49:06;98565.31;;;8.28;100.00
21276;BME280;36472;52.170;20.884;2024-02-23T06:51:35;98561.63;;;8.31;100.00
21276;BME280;36472;52.170;20.884;2024-02-23T06:54:05;98566.97;;;8.50;100.00
21276;BME280;36472;52.170;20.884;2024-02-23T06:56:37;98569.16;;;8.45;100.00
21276;BME280;36472;52.170;20.884;2024-02-23T06:59:06;98579.63;;;8.45;100.00
21276;BME280;36472;52.170;20.884;2024-02-23T07:01:35;98582.88;;;8.37;100.00
21276;BME280;36472;52.170;20.884;2024-02-23T07:04:07;98584.75;;;8.26;100.00
21276;BME280;36472;52.170;20.884;2024-02-23T07:06:36;98584.22;;;8.53;100.00
21276;BME280;36472;52.170;20.884;2024-02-23T07:09:05;98583.69;;;8.59;100.00
21276;BME280;36472;52.170;20.884;2024-02-23T07:11:37;98592.47;;;8.48;100.00
21276;BME280;36472;52.170;20.884;2024-02-23T07:14:06;98598.81;;;8.46;100.00
21276;BME280;36472;52.170;20.884;2024-02-23T07:16:38;98604.63;;;8.38;100.00
21276;BME280;36472;52.170;20.884;2024-02-23T07:19:08;98600.44;;;8.47;100.00
21276;BME280;36472;52.170;20.884;2024-02-23T07:21:37;98598.56;;;8.58;100.00
21276;BME280;36472;52.170;20.884;2024-02-23T07:24:10;98609.13;;;8.47;100.00
21276;BME280;36472;52.170;20.884;2024-02-23T07:26:40;98615.75;;;8.51;100.00
21276;BME280;36472;52.170;20.884;2024-02-23T07:29:09;98605.84;;;8.55;100.00
21276;BME280;36472;52.170;20.884;2024-02-23T07:31:38;98613.59;;;8.35;100.00
21276;BME280;36472;52.170;20.884;2024-02-23T07:34:07;98613.97;;;8.52;100.00
21276;BME280;36472;52.170;20.884;2024-02-23T07:36:37;98624.97;;;8.76;100.00
21276;BME280;36472;52.170;20.884;2024-02-23T07:39:06;98620.69;;;8.75;100.00
21276;BME280;36472;52.170;20.884;2024-02-23T07:41:36;98621.94;;;8.81;100.00
21276;BME280;36472;52.170;20.884;2024-02-23T07:44:06;98626.78;;;8.86;100.00
21276;BME280;36472;52.170;20.884;2024-02-23T07:46:35;98624.13;;;8.76;100.00
21276;BME280;36472;52.170;20.884;2024-02-23T07:49:04;98645.13;;;8.86;100.00
21276;BME280;36472;52.170;20.884;2024-02-23T07:51:34;98645.50;;;8.81;100.00
21276;BME280;36472;52.170;20.884;2024-02-23T07:54:03;98658.34;;;8.84;100.00
21276;BME280;36472;52.170;20.884;2024-02-23T07:56:33;98652.06;;;8.96;100.00
21276;BME280;36472;52.170;20.884;2024-02-23T07:59:02;98658.66;;;8.91;100.00
21276;BME280;36472;52.170;20.884;2024-02-23T08:01:33;98671.00;;;8.79;100.00
21276;BME280;36472;52.170;20.884;2024-02-23T08:04:02;98661.56;;;8.97;100.00
21276;BME280;36472;52.170;20.884;2024-02-23T08:06:31;98672.41;;;9.14;100.00
21276;BME280;36472;52.170;20.884;2024-02-23T08:09:00;98678.59;;;9.13;100.00
21276;BME280;36472;52.170;20.884;2024-02-23T08:11:30;98677.00;;;8.91;100.00
21276;BME280;36472;52.170;20.884;2024-02-23T08:14:03;98678.78;;;8.90;100.00
21276;BME280;36472;52.170;20.884;2024-02-23T08:16:34;98677.66;;;9.14;100.00
21276;BME280;36472;52.170;20.884;2024-02-23T08:19:03;98678.53;;;8.93;100.00
21276;BME280;36472;52.170;20.884;2024-02-23T08:21:33;98688.16;;;8.83;100.00
21276;BME280;36472;52.170;20.884;2024-02-23T08:24:02;98683.97;;;8.80;100.00
21276;BME280;36472;52.170;20.884;2024-02-23T08:26:31;98687.53;;;9.10;100.00
21276;BME280;36472;52.170;20.884;2024-02-23T08:29:01;98703.00;;;9.13;100.00
21276;BME280;36472;52.170;20.884;2024-02-23T08:31:31;98693.72;;;8.99;100.00
21276;BME280;36472;52.170;20.884;2024-02-23T08:34:01;98704.38;;;9.08;100.00
21276;BME280;36472;52.170;20.884;2024-02-23T08:36:30;98695.19;;;9.23;100.00
21276;BME280;36472;52.170;20.884;2024-02-23T08:38:59;98698.13;;;9.40;100.00
21276;BME280;36472;52.170;20.884;2024-02-23T08:41:28;98706.13;;;9.38;100.00
21276;BME280;36472;52.170;20.884;2024-02-23T08:43:58;98717.06;;;9.53;100.00
21276;BME280;36472;52.170;20.884;2024-02-23T08:46:27;98716.63;;;9.48;100.00
21276;BME280;36472;52.170;20.884;2024-02-23T08:48:56;98723.44;;;9.60;100.00
21276;BME280;36472;52.170;20.884;2024-02-23T08:51:27;98727.97;;;9.48;100.00
21276;BME280;36472;52.170;20.884;2024-02-23T08:53:56;98722.59;;;9.50;100.00
21276;BME280;36472;52.170;20.884;2024-02-23T08:56:31;98722.72;;;9.58;100.00
21276;BME280;36472;52.170;20.884;2024-02-23T08:59:00;98731.84;;;9.54;100.00
21276;BME280;36472;52.170;20.884;2024-02-23T09:01:30;98733.66;;;9.73;100.00
21276;BME280;36472;52.170;20.884;2024-02-23T09:03:59;98734.91;;;9.69;100.00
21276;BME280;36472;52.170;20.884;2024-02-23T09:06:30;98724.56;;;9.67;100.00
21276;BME280;36472;52.170;20.884;2024-02-23T09:09:02;98732.59;;;9.76;100.00
21276;BME280;36472;52.170;20.884;2024-02-23T09:11:32;98733.44;;;9.86;100.00
21276;BME280;36472;52.170;20.884;2024-02-23T09:14:01;98732.31;;;9.88;100.00
21276;BME280;36472;52.170;20.884;2024-02-23T09:16:30;98744.50;;;9.99;100.00
21276;BME280;36472;52.170;20.884;2024-02-23T09:18:59;98741.72;;;10.20;100.00
21276;BME280;36472;52.170;20.884;2024-02-23T09:21:30;98746.44;;;10.36;100.00
21276;BME280;36472;52.170;20.884;2024-02-23T09:23:59;98741.19;;;10.36;100.00
21276;BME280;36472;52.170;20.884;2024-02-23T09:26:28;98741.34;;;10.44;100.00
21276;BME280;36472;52.170;20.884;2024-02-23T09:28:57;98744.91;;;10.53;100.00
21276;BME280;36472;52.170;20.884;2024-02-23T09:31:27;98754.19;;;10.57;100.00
21276;BME280;36472;52.170;20.884;2024-02-23T09:33:58;98754.41;;;10.74;100.00
21276;BME280;36472;52.170;20.884;2024-02-23T09:36:27;98757.03;;;10.83;100.00
21276;BME280;36472;52.170;20.884;2024-02-23T09:38:59;98757.03;;;10.83;100.00
21276;BME280;36472;52.170;20.884;2024-02-23T09:41:30;98763.69;;;10.68;100.00
21276;BME280;36472;52.170;20.884;2024-02-23T09:44:01;98766.59;;;10.75;100.00
21276;BME280;36472;52.170;20.884;2024-02-23T09:46:31;98773.63;;;10.84;100.00
21276;BME280;36472;52.170;20.884;2024-02-23T09:49:02;98772.56;;;10.47;100.00
21276;BME280;36472;52.170;20.884;2024-02-23T09:51:33;98781.53;;;10.55;100.00
21276;BME280;36472;52.170;20.884;2024-02-23T09:54:05;98784.59;;;10.70;100.00
21276;BME280;36472;52.170;20.884;2024-02-23T09:56:35;98785.94;;;10.74;100.00
21276;BME280;36472;52.170;20.884;2024-02-23T09:59:05;98784.28;;;10.82;100.00
21276;BME280;36472;52.170;20.884;2024-02-23T10:01:34;98781.09;;;10.79;100.00
21276;BME280;36472;52.170;20.884;2024-02-23T10:04:06;98788.03;;;10.70;100.00
21276;BME280;36472;52.170;20.884;2024-02-23T10:06:36;98792.84;;;10.84;100.00
21276;BME280;36472;52.170;20.884;2024-02-23T10:09:06;98791.75;;;10.87;100.00
21276;BME280;36472;52.170;20.884;2024-02-23T10:11:36;98790.38;;;10.63;100.00
21276;BME280;36472;52.170;20.884;2024-02-23T10:14:05;98793.28;;;10.80;100.00
21276;BME280;36472;52.170;20.884;2024-02-23T10:16:34;98798.66;;;10.88;100.00
21276;BME280;36472;52.170;20.884;2024-02-23T10:19:04;98798.91;;;10.95;100.00
21276;BME280;36472;52.170;20.884;2024-02-23T10:21:34;98811.63;;;10.99;100.00
21276;BME280;36472;52.170;20.884;2024-02-23T10:24:06;98810.94;;;10.97;100.00
21276;BME280;36472;52.170;20.884;2024-02-23T10:26:36;98813.03;;;11.03;100.00
21276;BME280;36472;52.170;20.884;2024-02-23T10:29:05;98809.28;;;10.96;100.00
21276;BME280;36472;52.170;20.884;2024-02-23T10:31:38;98812.22;;;10.83;100.00
21276;BME280;36472;52.170;20.884;2024-02-23T10:34:09;98818.03;;;10.87;100.00
21276;BME280;36472;52.170;20.884;2024-02-23T10:36:42;98829.63;;;10.94;100.00
21276;BME280;36472;52.170;20.884;2024-02-23T10:39:17;98833.38;;;10.82;100.00
21276;BME280;36472;52.170;20.884;2024-02-23T10:41:56;98833.91;;;10.85;100.00
21276;BME280;36472;52.170;20.884;2024-02-23T10:44:28;98836.28;;;10.89;100.00
21276;BME280;36472;52.170;20.884;2024-02-23T10:46:58;98838.78;;;10.90;100.00
21276;BME280;36472;52.170;20.884;2024-02-23T10:49:28;98840.84;;;10.87;100.00
21276;BME280;36472;52.170;20.884;2024-02-23T10:51:59;98847.06;;;10.95;100.00
21276;BME280;36472;52.170;20.884;2024-02-23T10:54:31;98847.34;;;11.02;100.00
21276;BME280;36472;52.170;20.884;2024-02-23T10:57:02;98854.91;;;11.05;100.00
21276;BME280;36472;52.170;20.884;2024-02-23T10:59:32;98849.78;;;11.13;100.00
21276;BME280;36472;52.170;20.884;2024-02-23T11:02:03;98856.31;;;11.09;100.00
21276;BME280;36472;52.170;20.884;2024-02-23T11:04:34;98861.16;;;11.14;100.00
21276;BME280;36472;52.170;20.884;2024-02-23T11:07:13;98853.16;;;10.76;100.00
21276;BME280;36472;52.170;20.884;2024-02-23T11:09:43;98864.19;;;10.99;100.00
21276;BME280;36472;52.170;20.884;2024-02-23T11:12:23;98865.28;;;11.07;100.00
21276;BME280;36472;52.170;20.884;2024-02-23T11:14:57;98869.16;;;11.12;100.00
21276;BME280;36472;52.170;20.884;2024-02-23T11:17:30;98874.13;;;11.15;100.00
21276;BME280;36472;52.170;20.884;2024-02-23T11:20:03;98881.75;;;11.18;100.00
21276;BME280;36472;52.170;20.884;2024-02-23T11:22:34;98884.94;;;11.12;100.00
21276;BME280;36472;52.170;20.884;2024-02-23T11:25:09;98883.13;;;11.13;100.00
21276;BME280;36472;52.170;20.884;2024-02-23T11:27:40;98890.88;;;11.14;100.00
21276;BME280;36472;52.170;20.884;2024-02-23T11:30:11;98882.72;;;11.08;100.00
21276;BME280;36472;52.170;20.884;2024-02-23T11:32:43;98888.81;;;11.18;100.00
21276;BME280;36472;52.170;20.884;2024-02-23T11:35:13;98892.66;;;11.23;100.00
21276;BME280;36472;52.170;20.884;2024-02-23T11:37:48;98897.91;;;11.23;100.00
21276;BME280;36472;52.170;20.884;2024-02-23T11:40:22;98898.78;;;11.14;100.00
21276;BME280;36472;52.170;20.884;2024-02-23T11:42:52;98907.75;;;11.21;100.00
21276;BME280;36472;52.170;20.884;2024-02-23T11:45:22;98895.84;;;11.27;100.00
21276;BME280;36472;52.170;20.884;2024-02-23T11:47:52;98895.88;;;11.17;100.00
21276;BME280;36472;52.170;20.884;2024-02-23T11:50:21;98900.41;;;11.25;100.00
21276;BME280;36472;52.170;20.884;2024-02-23T11:52:50;98914.50;;;11.34;100.00
21276;BME280;36472;52.170;20.884;2024-02-23T11:55:22;98920.31;;;11.37;100.00
21276;BME280;36472;52.170;20.884;2024-02-23T11:57:52;98926.97;;;11.41;100.00
21276;BME280;36472;52.170;20.884;2024-02-23T12:00:34;98914.50;;;11.34;100.00
21276;BME280;36472;52.170;20.884;2024-02-23T12:03:05;98923.25;;;11.34;100.00
21276;BME280;36472;52.170;20.884;2024-02-23T12:05:35;98931.16;;;11.34;100.00
21276;BME280;36472;52.170;20.884;2024-02-23T12:08:05;98928.22;;;11.37;100.00
21276;BME280;36472;52.170;20.884;2024-02-23T12:10:36;98929.31;;;11.45;100.00
21276;BME280;36472;52.170;20.884;2024-02-23T12:13:06;98929.41;;;11.53;100.00
21276;BME280;36472;52.170;20.884;2024-02-23T12:15:35;98929.47;;;11.43;100.00
21276;BME280;36472;52.170;20.884;2024-02-23T12:18:05;98937.75;;;11.48;100.00
21276;BME280;36472;52.170;20.884;2024-02-23T12:20:35;98935.28;;;11.47;100.00
21276;BME280;36472;52.170;20.884;2024-02-23T12:23:04;98947.28;;;11.59;100.00
21276;BME280;36472;52.170;20.884;2024-02-23T12:25:35;98948.50;;;11.65;100.00
21276;BME280;36472;52.170;20.884;2024-02-23T12:28:07;98948.25;;;11.58;100.00
21276;BME280;36472;52.170;20.884;2024-02-23T12:30:36;98952.94;;;11.64;100.00
21276;BME280;36472;52.170;20.884;2024-02-23T12:33:07;98954.75;;;11.64;100.00
21276;BME280;36472;52.170;20.884;2024-02-23T12:35:36;98957.13;;;11.67;100.00
21276;BME280;36472;52.170;20.884;2024-02-23T12:38:06;98949.22;;;11.67;100.00
21276;BME280;36472;52.170;20.884;2024-02-23T12:40:36;98960.41;;;11.69;100.00
21276;BME280;36472;52.170;20.884;2024-02-23T12:43:05;98960.28;;;11.70;100.00
21276;BME280;36472;52.170;20.884;2024-02-23T12:45:34;98961.94;;;11.71;100.00
21276;BME280;36472;52.170;20.884;2024-02-23T12:48:05;98960.28;;;11.70;100.00
21276;BME280;36472;52.170;20.884;2024-02-23T12:50:34;98967.06;;;11.73;100.00
21276;BME280;36472;52.170;20.884;2024-02-23T12:53:04;98962.06;;;11.70;100.00
21276;BME280;36472;52.170;20.884;2024-02-23T12:55:33;98963.06;;;11.69;100.00
21276;BME280;36472;52.170;20.884;2024-02-23T12:58:06;98965.69;;;11.69;100.00
21276;BME280;36472;52.170;20.884;2024-02-23T13:00:35;98973.72;;;11.67;100.00
21276;BME280;36472;52.170;20.884;2024-02-23T13:03:04;98977.59;;;11.63;100.00
21276;BME280;36472;52.170;20.884;2024-02-23T13:05:34;98974.84;;;11.55;100.00